createdAt,value
2023-01-17T00:00:34.919Z,96689.94
2023-01-17T00:03:01.602Z,96692.69
2023-01-17T00:05:46.949Z,96685.72
2023-01-17T00:08:31.950Z,96697.06
2023-01-17T00:10:58.765Z,96685.97
2023-01-17T00:13:25.379Z,96701.09
2023-01-17T00:15:52.386Z,96691.69
2023-01-17T00:18:19.098Z,96704.53
2023-01-17T00:21:04.043Z,96710.75
2023-01-17T00:23:49.153Z,96738.59
2023-01-17T00:26:17.984Z,96745.00
2023-01-17T00:28:45.743Z,96750.03
2023-01-17T00:31:13.864Z,96745.94
2023-01-17T00:33:40.524Z,96760.13
2023-01-17T00:36:08.004Z,96751.97
2023-01-17T00:38:36.963Z,96748.66
2023-01-17T00:41:06.034Z,96745.34
2023-01-17T00:43:51.469Z,96748.66
2023-01-17T00:46:37.355Z,96764.94
2023-01-17T00:49:22.997Z,96767.81
2023-01-17T00:52:08.172Z,96764.97
2023-01-17T00:54:53.360Z,96766.31
2023-01-17T00:57:38.369Z,96763.22
2023-01-17T01:00:24.135Z,96781.13
2023-01-17T01:03:09.182Z,96784.88
2023-01-17T01:05:56.037Z,96789.81
2023-01-17T01:08:45.448Z,96779.38
2023-01-17T01:11:32.734Z,96782.72
2023-01-17T01:14:18.525Z,96793.72
2023-01-17T01:17:03.935Z,96790.97
2023-01-17T01:19:49.268Z,96799.00
2023-01-17T01:22:34.253Z,96797.97
2023-01-17T01:25:19.297Z,96794.19
2023-01-17T01:28:04.461Z,96793.50
2023-01-17T01:30:49.560Z,96789.84
2023-01-17T01:33:19.090Z,96779.88
2023-01-17T01:35:55.635Z,96772.75
2023-01-17T01:38:24.076Z,96788.69
2023-01-17T01:40:53.182Z,96795.44
2023-01-17T01:43:41.460Z,96762.31
2023-01-17T01:46:10.683Z,96789.28
2023-01-17T01:48:51.729Z,96785.25
2023-01-17T01:51:24.067Z,96781.13
2023-01-17T01:53:54.774Z,96787.78
2023-01-17T01:56:23.524Z,96777.09
2023-01-17T01:58:51.501Z,96785.81
2023-01-17T02:01:18.511Z,96787.09
2023-01-17T02:03:45.927Z,96788.44
2023-01-17T02:06:28.435Z,96792.91
2023-01-17T02:08:57.509Z,96787.63
2023-01-17T02:11:24.202Z,96779.16
2023-01-17T02:13:50.796Z,96781.38
2023-01-17T02:16:32.130Z,96790.84
2023-01-17T02:19:13.999Z,96790.84
2023-01-17T02:21:55.474Z,96789.03
2023-01-17T02:24:33.981Z,96782.50
2023-01-17T02:27:25.604Z,96774.47
2023-01-17T02:30:33.726Z,96778.03
2023-01-17T02:33:15.170Z,96785.50
2023-01-17T02:35:54.852Z,96768.63
2023-01-17T02:38:46.032Z,96777.47
2023-01-17T02:41:19.821Z,96766.78
2023-01-17T02:43:49.663Z,96771.69
2023-01-17T02:46:16.510Z,96763.34
2023-01-17T02:48:43.247Z,96761.03
2023-01-17T02:51:39.042Z,96763.78
2023-01-17T02:54:30.290Z,96760.59
2023-01-17T02:57:06.622Z,96769.75
2023-01-17T02:59:40.587Z,96780.53
2023-01-17T03:02:28.281Z,96788.22
2023-01-17T03:05:00.847Z,96784.00
2023-01-17T03:07:28.292Z,96784.66
2023-01-17T03:10:01.738Z,96783.56
2023-01-17T03:12:30.113Z,96790.66
2023-01-17T03:14:57.065Z,96785.94
2023-01-17T03:17:30.349Z,96789.50
2023-01-17T03:19:56.963Z,96784.56
2023-01-17T03:22:23.712Z,96788.34
2023-01-17T03:24:50.571Z,96779.50
2023-01-17T03:27:17.115Z,96791.56
2023-01-17T03:29:43.737Z,96802.44
2023-01-17T03:32:10.395Z,96801.19
2023-01-17T03:34:36.949Z,96803.94
2023-01-17T03:37:03.555Z,96806.81
2023-01-17T03:39:30.137Z,96802.81
2023-01-17T03:41:56.733Z,96808.41
2023-01-17T03:44:23.399Z,96810.25
2023-01-17T03:46:49.963Z,96808.88
2023-01-17T03:49:16.785Z,96812.09
2023-01-17T03:51:43.361Z,96814.84
2023-01-17T03:54:10.011Z,96814.97
2023-01-17T03:56:36.579Z,96808.88
2023-01-17T03:59:03.214Z,96822.50
2023-01-17T04:01:29.873Z,96817.94
2023-01-17T04:03:56.495Z,96813.81
2023-01-17T04:06:23.069Z,96809.44
2023-01-17T04:08:49.637Z,96814.50
2023-01-17T04:11:16.228Z,96812.78
2023-01-17T04:13:42.832Z,96822.75
2023-01-17T04:16:14.488Z,96816.81
2023-01-17T04:18:41.292Z,96821.38
2023-01-17T04:21:08.227Z,96814.50
2023-01-17T04:23:35.093Z,96815.66
2023-01-17T04:26:03.533Z,96824.94
2023-01-17T04:28:30.211Z,96813.69
2023-01-17T04:31:00.388Z,96832.50
2023-01-17T04:33:27.085Z,96822.75
2023-01-17T04:35:54.302Z,96825.97
2023-01-17T04:38:21.543Z,96823.66
2023-01-17T04:40:48.658Z,96820.00
2023-01-17T04:43:16.268Z,96826.09
2023-01-17T04:45:43.537Z,96830.34
2023-01-17T04:48:12.633Z,96821.94
2023-01-17T04:50:39.710Z,96826.88
2023-01-17T04:53:06.323Z,96827.78
2023-01-17T04:55:32.953Z,96827.00
2023-01-17T04:57:59.524Z,96828.94
2023-01-17T05:00:26.118Z,96837.53
2023-01-17T05:02:53.047Z,96843.84
2023-01-17T05:05:19.648Z,96842.44
2023-01-17T05:07:53.485Z,96831.34
2023-01-17T05:10:20.062Z,96840.75
2023-01-17T05:12:54.070Z,96847.03
2023-01-17T05:15:20.694Z,96830.31
2023-01-17T05:17:47.317Z,96837.63
2023-01-17T05:20:13.980Z,96850.81
2023-01-17T05:22:40.526Z,96845.19
2023-01-17T05:25:07.526Z,96854.94
2023-01-17T05:27:34.181Z,96858.81
2023-01-17T05:30:00.735Z,96853.53
2023-01-17T05:32:27.309Z,96850.09
2023-01-17T05:34:54.007Z,96866.97
2023-01-17T05:37:20.779Z,96860.09
2023-01-17T05:39:47.614Z,96863.88
2023-01-17T05:42:14.169Z,96859.28
2023-01-17T05:44:40.733Z,96863.75
2023-01-17T05:47:07.281Z,96876.38
2023-01-17T05:49:34.270Z,96875.09
2023-01-17T05:52:00.930Z,96874.63
2023-01-17T05:54:27.461Z,96888.75
2023-01-17T05:56:54.021Z,96890.59
2023-01-17T05:59:32.262Z,96893.09
2023-01-17T06:02:02.817Z,96897.47
2023-01-17T06:04:29.443Z,96904.91
2023-01-17T06:06:56.017Z,96907.53
2023-01-17T06:09:22.558Z,96914.38
2023-01-17T06:11:49.162Z,96919.78
2023-01-17T06:14:15.691Z,96917.94
2023-01-17T06:16:42.322Z,96923.16
2023-01-17T06:19:09.485Z,96932.50
2023-01-17T06:21:36.073Z,96935.94
2023-01-17T06:24:04.235Z,96941.31
2023-01-17T06:26:30.925Z,96949.94
2023-01-17T06:28:57.535Z,96954.66
2023-01-17T06:31:24.171Z,96944.66
2023-01-17T06:33:50.723Z,96952.56
2023-01-17T06:36:17.264Z,96950.75
2023-01-17T06:38:43.825Z,96947.75
2023-01-17T06:41:10.375Z,96951.56
2023-01-17T06:43:36.909Z,96961.44
2023-01-17T06:46:03.586Z,96957.63
2023-01-17T06:48:30.144Z,96960.63
2023-01-17T06:50:57.894Z,96964.66
2023-01-17T06:53:24.636Z,96969.13
2023-01-17T06:55:52.664Z,96981.97
2023-01-17T06:58:19.303Z,96981.31
2023-01-17T07:00:45.948Z,96984.53
2023-01-17T07:03:18.921Z,96991.88
2023-01-17T07:05:45.559Z,96994.41
2023-01-17T07:08:12.135Z,96996.31
2023-01-17T07:10:38.720Z,97000.78
2023-01-17T07:13:05.314Z,97003.00
2023-01-17T07:15:31.909Z,97003.63
2023-01-17T07:18:01.238Z,97007.19
2023-01-17T07:20:28.698Z,97009.13
2023-01-17T07:22:55.317Z,97009.47
2023-01-17T07:25:21.908Z,97020.28
2023-01-17T07:27:48.567Z,97024.47
2023-01-17T07:30:15.326Z,97028.88
2023-01-17T07:32:41.887Z,97042.19
2023-01-17T07:35:08.842Z,97032.34
2023-01-17T07:37:35.382Z,97039.84
2023-01-17T07:40:03.025Z,97043.44
2023-01-17T07:42:29.648Z,97038.28
2023-01-17T07:44:56.208Z,97045.59
2023-01-17T07:47:24.749Z,97038.88
2023-01-17T07:49:51.322Z,97042.66
2023-01-17T07:52:18.361Z,97038.88
2023-01-17T07:54:45.006Z,97042.44
2023-01-17T07:57:12.598Z,97046.84
2023-01-17T07:59:39.140Z,97049.34
2023-01-17T08:02:06.049Z,97056.50
2023-01-17T08:04:35.188Z,97059.81
2023-01-17T08:07:01.943Z,97058.56
2023-01-17T08:09:28.684Z,97056.94
2023-01-17T08:11:55.257Z,97061.75
2023-01-17T08:14:21.794Z,97071.44
2023-01-17T08:16:48.331Z,97068.31
2023-01-17T08:19:15.245Z,97066.38
2023-01-17T08:21:41.823Z,97067.41
2023-01-17T08:24:14.711Z,97067.31
2023-01-17T08:26:41.392Z,97074.66
2023-01-17T08:29:08.245Z,97057.75
2023-01-17T08:31:35.400Z,97057.16
2023-01-17T08:34:02.374Z,97047.88
2023-01-17T08:36:31.128Z,97044.50
2023-01-17T08:38:57.827Z,97031.31
2023-01-17T08:41:24.889Z,97028.16
2023-01-17T08:43:52.103Z,97034.75
2023-01-17T08:46:19.387Z,97025.38
2023-01-17T08:48:46.493Z,97029.84
2023-01-17T08:51:13.506Z,97033.03
2023-01-17T08:53:40.712Z,97044.09
2023-01-17T08:56:07.714Z,97048.22
2023-01-17T08:58:35.829Z,97049.97
2023-01-17T09:01:03.615Z,97061.53
2023-01-17T09:03:31.527Z,97063.84
2023-01-17T09:06:02.703Z,97072.63
2023-01-17T09:08:29.319Z,97073.84
2023-01-17T09:10:56.076Z,97081.97
2023-01-17T09:13:23.592Z,97088.59
2023-01-17T09:15:50.223Z,97089.41
2023-01-17T09:18:16.916Z,97099.34
2023-01-17T09:20:43.484Z,97095.91
2023-01-17T09:23:10.057Z,97092.97
2023-01-17T09:25:36.587Z,97099.03
2023-01-17T09:28:03.185Z,97102.47
2023-01-17T09:30:29.781Z,97108.13
2023-01-17T09:32:57.330Z,97100.47
2023-01-17T09:41:35.812Z,97094.53
2023-01-17T09:44:21.867Z,97083.66
2023-01-17T09:46:49.052Z,97078.44
2023-01-17T09:49:24.660Z,97089.22
2023-01-17T09:51:53.457Z,97095.31
2023-01-17T09:54:24.286Z,97097.06
2023-01-17T09:57:03.151Z,97080.91
2023-01-17T10:00:02.868Z,97081.22
2023-01-17T10:03:01.015Z,97076.50
2023-01-17T10:05:50.451Z,97068.09
2023-01-17T10:08:26.391Z,97052.78
2023-01-17T10:10:55.954Z,97054.81
2023-01-17T10:13:54.132Z,97041.88
2023-01-17T10:16:27.191Z,97044.06
2023-01-17T10:19:08.977Z,97044.59
2023-01-17T10:21:51.350Z,97036.56
2023-01-17T10:24:22.458Z,97046.88
2023-01-17T10:26:51.368Z,97046.59
2023-01-17T10:29:20.908Z,97031.88
2023-01-17T10:32:14.287Z,97020.41
2023-01-17T10:34:45.453Z,97011.59
2023-01-17T10:37:18.330Z,97008.72
2023-01-17T10:39:47.743Z,96992.25
2023-01-17T10:42:23.442Z,96990.41
2023-01-17T10:45:07.151Z,96988.28
2023-01-17T10:47:36.944Z,96978.50
2023-01-17T10:50:05.344Z,96971.13
2023-01-17T10:52:45.257Z,96961.88
2023-01-17T10:55:11.874Z,96961.63
2023-01-17T10:57:40.989Z,96956.31
2023-01-17T11:00:40.094Z,96957.91
2023-01-17T11:03:06.870Z,96943.22
2023-01-17T11:05:34.118Z,96941.81
2023-01-17T11:08:06.748Z,96937.06
2023-01-17T11:10:35.576Z,96934.56
2023-01-17T11:13:04.835Z,96927.22
2023-01-17T11:15:33.768Z,96930.69
2023-01-17T11:18:06.395Z,96931.28
2023-01-17T11:20:36.381Z,96931.38
2023-01-17T11:23:08.189Z,96930.00
2023-01-17T11:25:35.185Z,96925.19
2023-01-17T11:28:23.663Z,96922.25
2023-01-17T11:30:58.633Z,96923.09
2023-01-17T11:33:47.896Z,96915.91
2023-01-17T11:36:19.962Z,96922.53
2023-01-17T11:39:06.618Z,96926.25
2023-01-17T11:41:41.154Z,96924.16
2023-01-17T11:44:33.880Z,96917.19
2023-01-17T11:47:12.685Z,96908.41
2023-01-17T11:49:40.661Z,96915.88
2023-01-17T11:52:17.099Z,96921.22
2023-01-17T11:54:45.777Z,96920.69
2023-01-17T11:57:33.402Z,96927.91
2023-01-17T12:00:37.996Z,96928.75
2023-01-17T12:03:23.850Z,96914.13
2023-01-17T12:05:57.952Z,96906.09
2023-01-17T12:08:58.694Z,96900.50
2023-01-17T12:11:37.178Z,96904.75
2023-01-17T12:14:16.607Z,96897.78
2023-01-17T12:16:46.332Z,96898.28
2023-01-17T12:19:51.586Z,96893.97
2023-01-17T12:22:27.760Z,96892.88
2023-01-17T12:25:19.233Z,96886.72
2023-01-17T12:28:11.337Z,96875.69
2023-01-17T12:30:47.386Z,96869.25
2023-01-17T12:33:33.314Z,96867.59
2023-01-17T12:36:23.223Z,96873.53
2023-01-17T12:38:50.082Z,96848.41
2023-01-17T12:41:48.220Z,96846.03
2023-01-17T12:44:16.413Z,96840.75
2023-01-17T12:46:50.799Z,96839.16
2023-01-17T12:49:43.231Z,96838.41
2023-01-17T12:52:14.702Z,96834.97
2023-01-17T12:54:44.276Z,96838.41
2023-01-17T12:57:32.069Z,96849.84
2023-01-17T13:00:05.718Z,96843.00
2023-01-17T13:02:43.861Z,96845.50
2023-01-17T13:05:12.624Z,96852.25
2023-01-17T13:07:46.643Z,96842.66
2023-01-17T13:10:19.381Z,96828.78
2023-01-17T13:12:46.875Z,96833.38
2023-01-17T13:15:19.619Z,96836.63
2023-01-17T13:17:51.945Z,96838.19
2023-01-17T13:20:22.716Z,96841.69
2023-01-17T13:22:50.032Z,96828.91
2023-01-17T13:25:34.825Z,96819.88
2023-01-17T13:28:36.473Z,96827.34
2023-01-17T13:31:13.696Z,96834.53
2023-01-17T13:33:58.931Z,96836.94
2023-01-17T13:39:39.489Z,96834.53
2023-01-17T13:42:27.959Z,96830.25
2023-01-17T13:44:54.651Z,96825.19
2023-01-17T13:47:22.999Z,96834.22
2023-01-17T13:49:51.539Z,96842.19
2023-01-17T13:52:21.164Z,96837.88
2023-01-17T13:55:02.610Z,96822.41
2023-01-17T13:57:36.068Z,96821.38
2023-01-17T14:00:21.313Z,96822.41
2023-01-17T14:02:49.525Z,96812.56
2023-01-17T14:05:20.487Z,96806.16
2023-01-17T14:07:52.490Z,96801.59
2023-01-17T14:10:47.743Z,96776.84
2023-01-17T14:13:37.174Z,96761.63
2023-01-17T14:16:24.025Z,96752.53
2023-01-17T14:18:50.721Z,96752.56
2023-01-17T14:21:31.585Z,96741.13
2023-01-17T14:24:05.236Z,96748.56
2023-01-17T14:26:45.417Z,96740.25
2023-01-17T14:29:43.943Z,96735.44
2023-01-17T14:32:12.947Z,96729.31
2023-01-17T14:34:40.155Z,96722.94
2023-01-17T14:37:17.903Z,96728.75
2023-01-17T14:39:46.555Z,96722.34
2023-01-17T14:42:18.638Z,96723.94
2023-01-17T14:44:49.771Z,96727.34
2023-01-17T14:47:16.939Z,96714.09
2023-01-17T14:49:44.114Z,96720.97
2023-01-17T14:52:16.482Z,96705.75
2023-01-17T14:54:50.774Z,96713.41
2023-01-17T14:57:28.461Z,96704.38
2023-01-17T15:00:19.861Z,96710.44
2023-01-17T15:02:47.980Z,96698.41
2023-01-17T15:05:16.149Z,96712.31
2023-01-17T15:07:44.167Z,96717.59
2023-01-17T15:10:15.891Z,96703.19
2023-01-17T15:12:46.639Z,96704.78
2023-01-17T15:15:35.390Z,96698.91
2023-01-17T15:18:17.247Z,96679.28
2023-01-17T15:20:53.596Z,96681.34
2023-01-17T15:23:22.292Z,96676.31
2023-01-17T15:25:50.803Z,96681.63
2023-01-17T15:28:18.064Z,96688.47
2023-01-17T15:31:23.724Z,96683.66
2023-01-17T15:33:55.269Z,96681.03
2023-01-17T15:36:30.036Z,96694.06
2023-01-17T15:39:00.254Z,96686.56
2023-01-17T15:41:30.869Z,96690.31
2023-01-17T15:43:58.728Z,96686.25
2023-01-17T15:46:42.321Z,96688.66
2023-01-17T15:49:21.890Z,96688.41
2023-01-17T15:51:56.608Z,96687.03
2023-01-17T15:54:28.996Z,96689.50
2023-01-17T15:57:03.008Z,96677.00
2023-01-17T15:59:50.998Z,96691.09
2023-01-17T16:02:43.342Z,96690.34
2023-01-17T16:05:22.695Z,96694.19
2023-01-17T16:07:54.735Z,96693.97
2023-01-17T16:10:24.792Z,96696.31
2023-01-17T16:12:53.917Z,96693.41
2023-01-17T16:15:20.725Z,96692.09
2023-01-17T16:17:49.378Z,96691.97
2023-01-17T16:20:19.782Z,96704.59
2023-01-17T16:22:47.159Z,96702.44
2023-01-17T16:25:19.136Z,96704.81
2023-01-17T16:27:45.902Z,96697.88
2023-01-17T16:30:17.296Z,96697.88
2023-01-17T16:32:51.483Z,96703.69
2023-01-17T16:35:23.997Z,96709.75
2023-01-17T16:37:55.792Z,96706.59
2023-01-17T16:40:25.407Z,96700.97
2023-01-17T16:42:52.001Z,96701.31
2023-01-17T16:45:18.894Z,96697.41
2023-01-17T16:47:46.929Z,96699.13
2023-01-17T16:50:18.993Z,96701.78
2023-01-17T16:52:45.730Z,96706.25
2023-01-17T16:55:14.866Z,96700.69
2023-01-17T16:57:42.082Z,96700.19
2023-01-17T17:00:17.825Z,96714.75
2023-01-17T17:02:44.632Z,96714.25
2023-01-17T17:05:15.088Z,96707.84
2023-01-17T17:07:45.460Z,96704.63
2023-01-17T17:10:14.081Z,96703.28
2023-01-17T17:12:41.126Z,96697.69
2023-01-17T17:15:10.770Z,96697.16
2023-01-17T17:17:39.325Z,96706.56
2023-01-17T17:20:07.248Z,96700.88
2023-01-17T17:22:33.944Z,96689.19
2023-01-17T17:25:00.664Z,96696.56
2023-01-17T17:27:27.871Z,96703.25
2023-01-17T17:30:02.278Z,96697.94
2023-01-17T17:32:29.843Z,96704.09
2023-01-17T17:34:56.421Z,96692.44
2023-01-17T17:37:23.559Z,96691.84
2023-01-17T17:39:50.107Z,96704.63
2023-01-17T17:42:16.717Z,96696.06
2023-01-17T17:44:43.309Z,96700.50
2023-01-17T17:47:12.791Z,96686.47
2023-01-17T17:49:42.092Z,96692.34
2023-01-17T17:52:11.751Z,96689.59
2023-01-17T17:54:38.519Z,96680.38
2023-01-17T17:57:05.118Z,96677.16
2023-01-17T17:59:31.891Z,96679.25
2023-01-17T18:01:59.734Z,96667.78
2023-01-17T18:04:26.483Z,96665.03
2023-01-17T18:06:58.333Z,96652.97
2023-01-17T18:09:24.995Z,96649.28
2023-01-17T18:11:51.697Z,96639.16
2023-01-17T18:14:21.032Z,96645.81
2023-01-17T18:16:47.896Z,96647.50
2023-01-17T18:19:23.081Z,96654.25
2023-01-17T18:21:51.322Z,96659.25
2023-01-17T18:24:20.437Z,96643.03
2023-01-17T18:26:55.985Z,96647.03
2023-01-17T18:29:23.840Z,96644.91
2023-01-17T18:31:51.394Z,96654.13
2023-01-17T18:34:21.277Z,96649.94
2023-01-17T18:36:47.859Z,96641.34
2023-01-17T18:39:15.744Z,96641.94
2023-01-17T18:41:42.773Z,96633.22
2023-01-17T18:44:14.376Z,96632.38
2023-01-17T18:46:42.094Z,96624.41
2023-01-17T18:49:12.595Z,96627.16
2023-01-17T18:51:39.262Z,96620.53
2023-01-17T18:54:10.421Z,96625.09
2023-01-17T18:56:37.040Z,96625.38
2023-01-17T18:59:08.965Z,96613.13
2023-01-17T19:01:36.364Z,96618.22
2023-01-17T19:04:07.413Z,96613.13
2023-01-17T19:06:39.698Z,96613.88
2023-01-17T19:09:08.139Z,96615.97
2023-01-17T19:11:35.879Z,96616.97
2023-01-17T19:14:02.925Z,96617.56
2023-01-17T19:16:31.808Z,96610.13
2023-01-17T19:19:02.669Z,96602.28
2023-01-17T19:21:31.249Z,96590.31
2023-01-17T19:23:58.713Z,96582.69
2023-01-17T19:26:28.506Z,96570.16
2023-01-17T19:28:56.644Z,96565.94
2023-01-17T19:31:25.881Z,96562.97
2023-01-17T19:33:56.560Z,96572.44
2023-01-17T19:36:25.629Z,96570.63
2023-01-17T19:39:03.934Z,96575.66
2023-01-17T19:41:32.913Z,96576.69
2023-01-17T19:44:03.689Z,96581.19
2023-01-17T19:46:30.623Z,96577.50
2023-01-17T19:48:57.583Z,96578.06
2023-01-17T19:51:25.244Z,96577.28
2023-01-17T19:53:53.539Z,96572.41
2023-01-17T19:56:22.657Z,96576.69
2023-01-17T19:58:50.731Z,96562.63
2023-01-17T20:01:23.944Z,96563.44
2023-01-17T20:03:57.608Z,96556.81
2023-01-17T20:06:27.101Z,96569.78
2023-01-17T20:08:53.655Z,96561.31
2023-01-17T20:11:22.969Z,96562.41
2023-01-17T20:14:01.359Z,96567.34
2023-01-17T20:16:32.689Z,96562.97
2023-01-17T20:19:00.209Z,96552.50
2023-01-17T20:21:29.431Z,96559.16
2023-01-17T20:24:02.448Z,96559.41
2023-01-17T20:26:34.861Z,96554.41
2023-01-17T20:29:10.892Z,96554.97
2023-01-17T20:31:39.108Z,96539.81
2023-01-17T20:34:07.127Z,96542.75
2023-01-17T20:36:35.235Z,96548.94
2023-01-17T20:39:06.637Z,96536.72
2023-01-17T20:41:35.669Z,96530.31
2023-01-17T20:44:04.198Z,96530.66
2023-01-17T20:46:35.537Z,96543.81
2023-01-17T20:49:07.633Z,96549.88
2023-01-17T20:51:34.629Z,96554.13
2023-01-17T20:54:03.567Z,96545.31
2023-01-17T20:56:34.462Z,96544.97
2023-01-17T20:59:03.917Z,96533.88
2023-01-17T21:01:30.691Z,96531.50
2023-01-17T21:03:59.751Z,96529.25
2023-01-17T21:06:26.428Z,96531.09
2023-01-17T21:08:53.329Z,96526.09
2023-01-17T21:11:23.587Z,96529.41
2023-01-17T21:13:51.290Z,96539.00
2023-01-17T21:16:21.174Z,96535.22
2023-01-17T21:18:48.650Z,96530.22
2023-01-17T21:21:20.169Z,96524.81
2023-01-17T21:23:46.768Z,96515.19
2023-01-17T21:26:18.265Z,96524.63
2023-01-17T21:28:45.979Z,96519.06
2023-01-17T21:31:23.370Z,96520.09
2023-01-17T21:33:55.669Z,96516.91
2023-01-17T21:36:26.825Z,96512.44
2023-01-17T21:38:57.003Z,96504.28
2023-01-17T21:41:28.491Z,96515.13
2023-01-17T21:43:58.791Z,96506.81
2023-01-17T21:46:27.697Z,96499.72
2023-01-17T21:48:54.408Z,96504.50
2023-01-17T21:51:21.815Z,96500.81
2023-01-17T21:53:50.664Z,96513.19
2023-01-17T21:56:35.765Z,96506.03
2023-01-17T21:59:04.798Z,96509.09
2023-01-17T22:04:14.185Z,96504.16
2023-01-17T22:06:43.406Z,96505.47
2023-01-17T22:09:10.053Z,96511.81
2023-01-17T22:11:38.961Z,96519.81
2023-01-17T22:14:05.933Z,96513.66
2023-01-17T22:16:32.511Z,96513.88
2023-01-17T22:19:02.710Z,96519.47
2023-01-17T22:21:29.343Z,96515.31
2023-01-17T22:23:58.280Z,96521.06
2023-01-17T22:26:29.684Z,96530.09
2023-01-17T22:29:02.612Z,96517.56
2023-01-17T22:31:31.405Z,96519.66
2023-01-17T22:34:01.022Z,96528.66
2023-01-17T22:36:28.057Z,96527.09
2023-01-17T22:38:54.691Z,96520.72
2023-01-17T22:41:25.551Z,96523.59
2023-01-17T22:43:53.703Z,96521.47
2023-01-17T22:46:28.111Z,96519.34
2023-01-17T22:48:57.116Z,96522.28
2023-01-17T22:51:25.487Z,96511.47
2023-01-17T22:53:54.379Z,96519.16
2023-01-17T22:56:23.519Z,96510.94
2023-01-17T22:58:50.760Z,96501.63
2023-01-17T23:01:17.630Z,96494.84
2023-01-17T23:03:47.597Z,96502.59
2023-01-17T23:06:16.397Z,96492.75
2023-01-17T23:08:45.624Z,96480.50
2023-01-17T23:11:41.869Z,96501.03
2023-01-17T23:14:09.702Z,96497.72
2023-01-17T23:16:56.525Z,96481.03
2023-01-17T23:19:23.678Z,96502.25
2023-01-17T23:22:10.709Z,96499.16
2023-01-17T23:24:43.036Z,96495.25
2023-01-17T23:27:35.392Z,96495.75
2023-01-17T23:30:05.092Z,96493.06
2023-01-17T23:32:31.743Z,96482.88
2023-01-17T23:34:58.325Z,96494.59
2023-01-17T23:37:52.130Z,96495.06
2023-01-17T23:40:19.278Z,96495.59
2023-01-17T23:43:05.044Z,96487.88
2023-01-17T23:45:37.368Z,96473.44
2023-01-17T23:48:05.727Z,96477.88
2023-01-17T23:50:33.127Z,96473.00
2023-01-17T23:53:00.151Z,96477.19
2023-01-17T23:55:28.016Z,96464.53
2023-01-17T23:57:55.010Z,96447.75
